Home > Products > Valid Products > TAF

000
FTUS43 KSGF 221100
TAFJLN
TAF
KJLN 221129Z 2212/2312 19010KT P6SM SKC WS020/24040KT
     FM221400 20015G23KT P6SM SKC
     FM230100 18010KT P6SM SKC=



000
FTUS43 KSGF 221100
TAFSGF
TAF
KSGF 221129Z 2212/2312 17008KT P6SM SKC WS020/24040KT
     FM221400 22012G20KT P6SM SKC
     FM230100 18008KT P6SM SKC=



000
FTUS43 KSGF 220500
TAFJLN
TAF
KJLN 220520Z 2206/2306 18008KT P6SM SKC WS020/24040KT
     FM221400 20015KT P6SM SKC=



000
FTUS43 KSGF 220500
TAFSGF
TAF
KSGF 220520Z 2206/2306 18008KT P6SM SKC WS020/24040KT
     FM221400 22012KT P6SM SKC=



000
FTUS43 KSGF 212300
TAFJLN
TAF
KJLN 212324Z 2200/2224 18010KT P6SM SKC
     FM220600 18008KT P6SM SKC WS020/24040KT
     FM221400 20015KT P6SM SKC=



000
FTUS43 KSGF 212300
TAFSGF
TAF
KSGF 212324Z 2200/2224 19009KT P6SM SKC
     FM220600 18008KT P6SM SKC WS020/24040KT
     FM221400 22012KT P6SM SKC=



000
FTUS43 KSGF 211700
TAFJLN
TAF
KJLN 211720Z 2118/2218 21015G20KT P6SM SKC
     FM212330 18010KT P6SM SKC
     FM220600 18008KT P6SM SKC WS020/24040KT
     FM221400 20015KT P6SM SKC=



000
FTUS43 KSGF 211700
TAFSGF
TAF
KSGF 211720Z 2118/2218 21015G20KT P6SM SKC
     FM212330 19012KT P6SM SKC
     FM220600 18008KT P6SM SKC WS020/24040KT
     FM221400 22012KT P6SM SKC=



000
FTUS43 KSGF 211100
TAFJLN
TAF
KJLN 211120Z 2112/2212 17012KT P6SM SKC WS020/21040KT
     FM211500 21015G22KT P6SM SKC
     FM212330 18010KT P6SM SKC
     FM220600 18008KT P6SM SKC WS020/24040KT=



000
FTUS43 KSGF 211100
TAFSGF
TAF
KSGF 211120Z 2112/2212 16010KT P6SM SKC WS020/22040KT
     FM211500 20012G20KT P6SM SKC
     FM212330 18008KT P6SM SKC
     FM220600 18008KT P6SM SKC WS020/24040KT=



000
FTUS43 KSGF 210500
TAFSGF
TAF
KSGF 210520Z 2106/2206 16010KT P6SM SKC WS020/22040KT
     FM211500 20012G20KT P6SM SKC
     FM212300 18008KT P6SM SKC=



000
FTUS43 KSGF 210500
TAFJLN
TAF
KJLN 210520Z 2106/2206 17012KT P6SM SKC WS020/21040KT
     FM211500 21015G22KT P6SM SKC
     FM212300 18010KT P6SM SKC=



000
FTUS43 KSGF 202300
TAFJLN
TAF
KJLN 202320Z 2100/2124 19015KT P6SM SKC
     FM210100 17010KT P6SM SKC
     FM210600 19010KT P6SM SKC WS020/21040KT
     FM211500 21015G22KT P6SM SKC=



000
FTUS43 KSGF 202300
TAFSGF
TAF
KSGF 202320Z 2100/2124 21018KT P6SM SKC
     FM210200 19010KT P6SM SKC
     FM210600 17008KT P6SM SKC WS020/22040KT
     FM211500 20012G20KT P6SM SKC=



000
FTUS43 KSGF 201700
TAFSGF
TAF
KSGF 201720Z 2018/2118 22014G22KT P6SM SCT070
     FM210100 18010KT P6SM SKC
     FM210600 17009KT P6SM SKC WS020/22040KT
     FM211400 21012G18KT P6SM SKC=



000
FTUS43 KSGF 201700
TAFJLN
TAF
KJLN 201720Z 2018/2118 21015G25KT P6SM SCT070
     FM210100 17011KT P6SM SKC
     FM211500 21015G22KT P6SM SKC=



000
FTUS43 KSGF 201100
TAFJLN
TAF
KJLN 201120Z 2012/2112 20008KT P6SM SKC
     FM201500 21015G25KT P6SM SKC
     FM210100 17011KT P6SM SKC=



000
FTUS43 KSGF 201100
TAFSGF
TAF
KSGF 201120Z 2012/2112 20006KT P6SM SKC
     FM201500 22014G22KT P6SM SKC
     FM210100 18009KT P6SM SKC=



000
FTUS43 KSGF 200500
TAFJLN
TAF
KJLN 200520Z 2006/2106 20008KT P6SM SKC
     FM201500 21015G25KT P6SM SKC
     FM210100 17011KT P6SM SKC=



000
FTUS43 KSGF 200500
TAFSGF
TAF
KSGF 200520Z 2006/2106 20006KT P6SM SKC
     FM201500 22014G22KT P6SM SKC
     FM210100 18009KT P6SM SKC=



000
FTUS43 KSGF 192300
TAFJLN
TAF
KJLN 192337Z 2000/2024 22010KT P6SM SKC
     FM200100 19008KT P6SM SKC
     FM201500 21015G25KT P6SM SKC=



000
FTUS43 KSGF 192300
TAFSGF
TAF
KSGF 192337Z 2000/2024 22010KT P6SM SCT080 BKN150
     FM200100 19007KT P6SM SKC
     FM201500 22014G22KT P6SM SKC=



000
FTUS43 KSGF 191700
TAFSGF
TAF
KSGF 191720Z 1918/2018 23010KT P6SM SCT250
     FM200100 19007KT P6SM SKC=



000
FTUS43 KSGF 191700
TAFJLN
TAF
KJLN 191720Z 1918/2018 23010KT P6SM SKC
     FM200100 19010KT P6SM SKC=



000
FTUS43 KSGF 191600 AAA
TAFJLN
TAF AMD
KJLN 191625Z 1916/2012 23010KT P6SM SCT050
     FM200100 19010KT P6SM SKC=



    US Dept of Commerce
    National Oceanic and Atmospheric Administration
    National Weather Service
    1325 East West Highway
    Silver Spring, MD 20910
    Page Author: NWS Internet Services Team
Disclaimer
Information Quality
Credits
Glossary
Privacy Policy
Freedom of Information Act (FOIA)
About Us
Career Opportunities